EST,Max TemperatureF,Mean TemperatureF,Min TemperatureF,Max Dew PointF,MeanDew PointF,Min DewpointF,Max Humidity, Mean Humidity, Min Humidity, Max Sea Level PressureIn, Mean Sea Level PressureIn, Min Sea Level PressureIn, Max VisibilityMiles, Mean VisibilityMiles, Min VisibilityMiles, Max Wind SpeedMPH, Mean Wind SpeedMPH, Max Gust SpeedMPH,PrecipitationIn, CloudCover, Events, WindDirDegrees
2012-11-1,72,57,42,46,38,27,96,59,22,30.07,30.00,29.95,10,10,8,18,5,23,0.00,1,,298
2012-11-2,80,60,39,53,45,37,92,62,32,30.10,30.04,29.98,10,10,10,16,5,24,0.00,0,,248
2012-11-3,86,68,50,62,55,48,100,69,37,30.15,30.09,30.03,10,5,0,12,2,15,0.00,2,Fog,262
2012-11-4,83,69,54,62,56,53,100,71,42,30.10,30.06,29.96,10,6,0,15,4,21,T,3,Fog-Rain,266
2012-11-5,73,60,46,53,44,38,86,57,27,30.09,30.02,29.94,10,10,10,10,4,16,T,1,,355
2012-11-6,63,57,51,54,50,44,93,74,55,29.99,29.94,29.90,10,8,2,15,6,20,0.02,7,Rain,313
2012-11-7,63,51,39,46,40,34,93,65,36,30.09,29.99,29.91,10,9,6,17,6,28,0.00,6,,305
2012-11-8,67,50,33,41,37,33,100,65,29,30.22,30.17,30.09,10,10,9,10,2,14,0.00,0,,314
2012-11-9,72,53,33,40,36,31,92,58,23,30.34,30.27,30.22,10,10,8,8,1,15,0.00,0,,311
2012-11-10,75,55,35,42,36,32,92,57,22,30.38,30.33,30.28,10,10,6,9,1,12,0.00,0,,104
2012-11-11,78,61,43,56,49,39,93,67,40,30.40,30.33,30.29,10,10,8,16,5,21,0.00,3,,114
2012-11-12,79,67,55,61,58,54,93,70,47,30.30,30.25,30.20,10,10,6,18,5,22,T,3,Rain,158
2012-11-13,70,60,50,61,43,30,93,59,24,30.31,30.25,30.20,10,10,10,14,6,24,T,4,,347
2012-11-14,56,53,50,50,49,43,89,78,66,30.32,30.27,30.23,10,9,3,16,8,20,T,8,Rain,43
2012-11-15,53,51,48,48,45,44,93,82,71,30.29,30.26,30.23,10,8,4,13,6,18,0.00,8,,27
2012-11-16,63,52,41,46,44,38,93,71,48,30.32,30.27,30.24,10,9,2,15,6,18,T,5,Rain,38
2012-11-17,64,52,39,40,37,32,93,65,36,30.37,30.32,30.28,10,9,6,21,8,26,0.00,3,,33
2012-11-18,72,59,45,47,40,32,72,56,39,30.35,30.30,30.25,10,10,10,17,6,22,0.00,1,,25
2012-11-19,69,58,47,52,48,42,86,69,52,30.30,30.23,30.18,10,10,10,13,5,17,0.00,3,,13
2012-11-20,69,60,50,57,52,48,93,74,55,30.21,30.14,30.09,10,10,8,8,2,15,T,6,Rain,350
2012-11-21,74,59,43,49,44,41,100,66,31,30.17,30.13,30.10,10,7,0,14,3,20,0.00,0,Fog,360
2012-11-22,73,56,39,45,37,28,93,58,22,30.28,30.22,30.18,10,10,6,9,1,13,0.00,0,,95
2012-11-23,75,55,35,46,40,33,92,63,33,30.25,30.17,30.09,10,10,9,15,4,20,0.00,1,,272
2012-11-24,63,48,33,50,30,14,77,47,17,30.20,30.15,30.08,10,10,10,18,7,25,0.00,0,,324
2012-11-25,64,45,26,27,20,11,85,49,13,30.25,30.18,30.13,10,10,10,9,2,16,0.00,0,,286
2012-11-26,71,50,28,39,29,23,85,51,17,30.29,30.22,30.18,10,9,2,10,2,26,0.00,0,,191
2012-11-27,54,50,46,53,49,37,100,77,54,30.24,30.19,30.15,10,6,0,21,2,,0.52,7,Fog-Rain,19
2012-11-28,59,50,40,52,47,39,100,81,61,30.40,30.31,30.23,10,5,0,14,5,21,0.00,7,Fog,359
2012-11-29,65,51,37,46,42,36,100,74,48,30.44,30.38,30.33,10,7,2,10,3,14,0.00,3,,48
2012-11-30,72,58,44,52,48,43,100,72,44,30.38,30.32,30.26,10,9,5,10,3,13,0.00,4,,94